| time (UTC) | temp F | wind direction | speed knots | gust knots | rain 1hr in | rain 24hr in | rain mn in | humidity % | barometer mb |
| 20260906231607 | 64 | 298 | 0.0 | 0.9 | 0.00 | 0.11 | 0.11 | 63 | 1014.6 |
| 20260906230057 | 66 | 295 | 0.0 | 1.7 | 0.00 | 0.11 | 0.11 | 59 | 1014.6 |
| 20260906224555 | 67 | 289 | 0.0 | 2.6 | 0.00 | 0.11 | 0.11 | 61 | 1014.4 |
| 20260906223103 | 67 | 279 | 0.9 | 4.3 | 0.00 | 0.11 | 0.11 | 62 | 1014.3 |
| 20260906221552 | 67 | 284 | 0.0 | 2.6 | 0.00 | 0.11 | 0.11 | 69 | 1014.2 |
| 20260906220050 | 67 | 293 | 0.0 | 2.6 | 0.00 | 0.11 | 0.11 | 67 | 1014.2 |
| 20260906214552 | 67 | 276 | 0.0 | 0.0 | 0.00 | 0.11 | 0.11 | 66 | 1014.2 |
| 20260906213049 | 68 | 276 | 0.0 | 0.0 | 0.00 | 0.11 | 0.11 | 65 | 1014.2 |
| 20260906211550 | 69 | 257 | 0.0 | 2.6 | 0.00 | 0.11 | 0.11 | 62 | 1014.0 |
| 20260906210058 | 69 | 275 | 0.0 | 3.5 | 0.00 | 0.11 | 0.11 | 65 | 1013.7 |
| 20260906204556 | 68 | 267 | 0.0 | 0.9 | 0.00 | 0.11 | 0.11 | 67 | 1013.9 |
| 20260906203046 | 69 | 269 | 0.0 | 0.9 | 0.00 | 0.11 | 0.11 | 67 | 1013.8 |
| 20260906201549 | 68 | 269 | 0.0 | 1.7 | 0.00 | 0.11 | 0.11 | 66 | 1013.8 |
| 20260906200044 | 69 | 284 | 0.9 | 3.5 | 0.00 | 0.11 | 0.11 | 63 | 1013.6 |
| 20260906194601 | 69 | 285 | 2.6 | 6.1 | 0.00 | 0.11 | 0.11 | 63 | 1013.5 |
| 20260906193041 | 68 | 298 | 2.6 | 6.1 | 0.00 | 0.11 | 0.11 | 65 | 1013.6 |
| 20260906191539 | 67 | 291 | 1.7 | 4.3 | 0.00 | 0.11 | 0.11 | 66 | 1013.8 |
| 20260906190039 | 68 | 291 | 2.6 | 7.0 | 0.00 | 0.11 | 0.11 | 65 | 1013.8 |
| 20260906184538 | 67 | 269 | 2.6 | 7.8 | 0.00 | 0.11 | 0.11 | 70 | 1013.9 |
| 20260906183053 | 67 | 305 | 0.9 | 3.5 | 0.00 | 0.11 | 0.11 | 71 | 1014.1 |
| 20260906181540 | 67 | 288 | 1.7 | 3.5 | 0.00 | 0.11 | 0.11 | 70 | 1014.2 |
| 20260906180040 | 66 | 278 | 0.9 | 2.6 | 0.00 | 0.11 | 0.11 | 75 | 1014.3 |
| 20260906174528 | 66 | 293 | 0.9 | 4.3 | 0.00 | 0.11 | 0.11 | 76 | 1014.4 |
| 20260906173027 | 66 | 292 | 0.0 | 5.2 | 0.00 | 0.11 | 0.11 | 77 | 1014.6 |
| 20260906171524 | 64 | 167 | 0.0 | 4.3 | 0.00 | 0.11 | 0.11 | 80 | 1014.8 |
| 20260906170020 | 62 | 295 | 0.0 | 5.2 | 0.00 | 0.11 | 0.11 | 85 | 1014.9 |
| 20260906164519 | 61 | 302 | 0.0 | 0.9 | 0.00 | 0.11 | 0.11 | 89 | 1015.2 |
| 20260906163018 | 61 | 295 | 0.0 | 3.5 | 0.00 | 0.11 | 0.11 | 88 | 1015.3 |
| 20260906161535 | 63 | 287 | 0.0 | 0.9 | 0.00 | 0.11 | 0.11 | 87 | 1015.2 |
| 20260906160016 | 63 | 287 | 0.0 | 1.7 | 0.00 | 0.11 | 0.11 | 87 | 1015.3 |
| 20260906154517 | 63 | 302 | 0.0 | 3.5 | 0.00 | 0.11 | 0.11 | 85 | 1015.3 |
| 20260906153013 | 62 | 287 | 0.9 | 3.5 | 0.00 | 0.11 | 0.11 | 90 | 1015.4 |
| 20260906151515 | 61 | 291 | 0.0 | 2.6 | 0.00 | 0.11 | 0.11 | 92 | 1015.5 |
| 20260906150012 | 61 | 290 | 0.0 | 3.5 | 0.00 | 0.11 | 0.11 | 91 | 1015.7 |
| 20260906144515 | 62 | 287 | 0.9 | 2.6 | 0.00 | 0.11 | 0.11 | 90 | 1015.7 |
| 20260906143008 | 60 | 301 | 0.0 | 1.7 | 0.00 | 0.11 | 0.11 | 93 | 1015.7 |
| 20260906141510 | 60 | 306 | 0.0 | 0.9 | 0.00 | 0.11 | 0.11 | 93 | 1015.8 |
| 20260906140010 | 60 | 147 | 0.0 | 0.9 | 0.00 | 0.11 | 0.11 | 92 | 1015.7 |
| 20260906134506 | 61 | 121 | 0.0 | 1.7 | 0.00 | 0.11 | 0.11 | 91 | 1015.7 |
| 20260906133008 | 61 | 240 | 0.0 | 1.7 | 0.00 | 0.11 | 0.11 | 95 | 1015.5 |
| 20260906131503 | 59 | 170 | 0.0 | 1.7 | 0.00 | 0.11 | 0.11 | 97 | 1015.6 |
| 20260906130001 | 58 | 294 | 0.0 | 1.7 | 0.00 | 0.11 | 0.11 | 97 | 1015.6 |
| 20260906124501 | 58 | 294 | 0.0 | 0.9 | 0.00 | 0.11 | 0.11 | 97 | 1015.7 |
| 20260906123108 | 58 | 294 | 0.0 | 0.9 | 0.00 | 0.11 | 0.11 | 98 | 1015.7 |
| 20260906121609 | 58 | 293 | 0.0 | 0.9 | 0.00 | 0.11 | 0.11 | 98 | 1015.5 |
| 20260906120104 | 58 | 293 | 0.0 | 0.0 | 0.00 | 0.11 | 0.11 | 99 | 1015.4 |
| 20260906114557 | 57 | 293 | 0.0 | 0.9 | 0.00 | 0.11 | 0.11 | 99 | 1015.2 |
| 20260906113055 | 57 | 293 | 0.0 | 0.9 | 0.00 | 0.11 | 0.11 | 99 | 1015.1 |
| 20260906111553 | 57 | 293 | 0.0 | 0.9 | 0.00 | 0.11 | 0.11 | 98 | 1014.8 |
| 20260906110050 | 57 | 293 | 0.0 | 0.9 | 0.00 | 0.11 | 0.11 | 98 | 1014.7 |
| 20260906104550 | 57 | 160 | 0.0 | 0.0 | 0.01 | 0.11 | 0.11 | 98 | 1014.6 |
| 20260906103049 | 57 | 160 | 0.0 | 0.9 | 0.01 | 0.11 | 0.11 | 98 | 1014.4 |
| 20260906101543 | 57 | 160 | 0.0 | 0.0 | 0.01 | 0.11 | 0.11 | 98 | 1014.1 |
| 20260906100041 | 57 | 160 | 0.0 | 0.0 | 0.01 | 0.11 | 0.11 | 98 | 1014.2 |
| 20260906094545 | 57 | 159 | 0.0 | 0.9 | 0.01 | 0.10 | 0.10 | 98 | 1014.0 |
| 20260906093038 | 57 | 146 | 0.0 | 0.9 | 0.03 | 0.10 | 0.10 | 98 | 1014.0 |
| 20260906091537 | 58 | 146 | 0.0 | 0.9 | 0.06 | 0.10 | 0.10 | 98 | 1013.8 |
| 20260906090048 | 58 | 181 | 0.0 | 0.0 | 0.08 | 0.10 | 0.10 | 98 | 1013.7 |
| 20260906084535 | 58 | 181 | 0.0 | 0.9 | 0.07 | 0.09 | 0.09 | 98 | 1013.7 |
| 20260906083031 | 58 | 161 | 0.0 | 1.7 | 0.05 | 0.07 | 0.07 | 98 | 1013.6 |
| 20260906081530 | 59 | 136 | 0.0 | 1.7 | 0.02 | 0.04 | 0.04 | 98 | 1013.7 |
| 20260906080036 | 59 | 292 | 0.0 | 0.9 | 0.01 | 0.02 | 0.02 | 98 | 1013.6 |
| 20260906074524 | 59 | 293 | 0.0 | 0.0 | 0.01 | 0.02 | 0.02 | 98 | 1013.1 |
| 20260906073022 | 59 | 293 | 0.0 | 0.0 | 0.01 | 0.02 | 0.02 | 98 | 1013.0 |
| 20260906071526 | 60 | 293 | 0.0 | 0.0 | 0.01 | 0.02 | 0.02 | 98 | 1013.0 |
| 20260906070021 | 60 | 293 | 0.0 | 0.0 | 0.00 | 0.01 | 0.01 | 98 | 1013.0 |
| 20260906064520 | 60 | 293 | 0.0 | 0.9 | 0.00 | 0.01 | 0.01 | 98 | 1013.0 |
| 20260906063020 | 60 | 293 | 0.0 | 0.9 | 0.00 | 0.01 | 0.01 | 98 | 1012.9 |
| 20260906061519 | 60 | 293 | 0.0 | 0.9 | 0.00 | 0.01 | 0.01 | 98 | 1013.0 |
| 20260906060023 | 60 | 293 | 0.0 | 1.7 | 0.01 | 0.01 | 0.01 | 98 | 1013.0 |
| 20260906054517 | 60 | 292 | 0.0 | 2.6 | 0.01 | 0.01 | 0.01 | 98 | 1013.0 |
| 20260906053017 | 60 | 292 | 0.0 | 0.9 | 0.01 | 0.01 | 0.01 | 98 | 1013.0 |
| 20260906051517 | 60 | 292 | 0.0 | 2.6 | 0.01 | 0.01 | 0.01 | 98 | 1013.1 |
| 20260906050013 | 60 | 288 | 0.0 | 0.9 | 0.00 | 0.00 | 0.00 | 98 | 1013.1 |
| 20260906044516 | 60 | 287 | 0.0 | 0.9 | 0.00 | 0.00 | 0.00 | 98 | 1013.2 |
| 20260906043025 | 60 | 287 | 0.0 | 1.7 | 0.00 | 0.00 | 0.00 | 97 | 1013.1 |
| 20260906041509 | 61 | 294 | 0.0 | 1.7 | 0.00 | 0.00 | 0.00 | 97 | 1013.2 |
| 20260906040007 | 61 | 306 | 0.0 | 0.9 | 0.00 | 0.00 | 0.00 | 97 | 1013.1 |
| 20260906034506 | 61 | 130 | 0.0 | 0.0 | 0.00 | 0.00 | 0.00 | 97 | 1013.0 |
| 20260906033006 | 61 | 130 | 0.0 | 0.0 | 0.00 | 0.00 | 0.00 | 97 | 1012.9 |
| 20260906031510 | 61 | 130 | 0.0 | 0.0 | 0.00 | 0.00 | 0.00 | 97 | 1012.7 |
| 20260906030005 | 61 | 130 | 0.0 | 0.0 | 0.00 | 0.00 | 0.00 | 96 | 1012.9 |
| 20260906024504 | 61 | 130 | 0.0 | 0.0 | 0.00 | 0.00 | 0.00 | 96 | 1012.9 |
| 20260906023004 | 61 | 130 | 0.0 | 0.0 | 0.00 | 0.00 | 0.00 | 96 | 1012.7 |
| 20260906021505 | 61 | 130 | 0.0 | 0.0 | 0.00 | 0.00 | 0.00 | 96 | 1012.7 |
| 20260906020002 | 61 | 130 | 0.0 | 0.0 | 0.00 | 0.00 | 0.00 | 95 | 1012.7 |
| 20260906014504 | 62 | 130 | 0.0 | 0.0 | 0.00 | 0.00 | 0.00 | 95 | 1012.8 |
| 20260906013002 | 62 | 130 | 0.0 | 0.0 | 0.00 | 0.00 | 0.00 | 94 | 1012.9 |
| 20260906011601 | 62 | 130 | 0.0 | 0.0 | 0.00 | 0.00 | 0.00 | 94 | 1013.0 |
| 20260906010140 | 62 | 130 | 0.0 | 0.0 | 0.00 | 0.00 | 0.00 | 94 | 1012.8 |
| 20260906004614 | 62 | 130 | 0.0 | 0.0 | 0.00 | 0.00 | 0.00 | 93 | 1012.6 |
| 20260906003055 | 63 | 130 | 0.0 | 0.0 | 0.00 | 0.00 | 0.00 | 92 | 1012.5 |
| 20260906001603 | 63 | 130 | 0.0 | 0.0 | 0.00 | 0.00 | 0.00 | 90 | 1012.4 |
| 20260906000053 | 63 | 130 | 0.0 | 0.0 | 0.00 | 0.00 | 0.00 | 90 | 1012.5 |
| 20260905234552 | 63 | 130 | 0.0 | 0.0 | 0.00 | 0.00 | 0.00 | 89 | 1012.3 |
| 20260905233051 | 64 | 130 | 0.0 | 0.0 | 0.00 | 0.00 | 0.00 | 88 | 1012.2 |